Pensacola Regional Airport Pensacola US
ICAO: KPNS
IATA: PNS
Category: Medium
Scheduled Services: Yes

Elevation: 121 ft
TransAlt. 18000 ft.

Airport Communications:
APP/DEP:118.6
ATIS:121.25
CLNC DEL:123.725
CTAF:119.9
GND:121.9
GAINESVILLE RDO:122.2
TWR:119.9
UNICOM:122.95

KPNS Zoom In..

Runways:

(A) RW 08 length 7000 ft width 150 ft
LOC 110.95 / hdg 80

(B) RW 17 length 7004 ft width 150 ft
ILS 111.10 / hdg 169

(C) RW 26 length 7000 ft width 150 ft
LOC 110.95 / hdg 260

(D) RW 35 length 7004 ft width 150 ft
LOC 110.95 / hdg 349

Location; KPNS
Day. 03 / Time. 01.53 Zulu
* Altimeter: 30.09
* Temperature: 26° c. 78.8°f.
* Wind from: 130° Speed 06 kn.
Dewpoint: 23° c.
Visibility: 10 Statute Miles.
Clouds: Broken 1400 ft.
Clouds: Broken 2000 ft.

KPNS 030153Z 13006KT 10SM BKN014 BKN020 26/23 A3009 RMK AO2 SLP189 T02610233


Wind From 130°
Speed 06 kn.

 
 
jpsmedia worldairports.se 2020   terms of use